Time;durP1;ratioP1;P1;durP2;ratioP2;P2;SDS_P1;SDS_P2;PMS_P1;PMS_P2;Temp;Humidity;BMP_temperature;BMP_pressure;BME280_temperature;BME280_humidity;BME280_pressure;Samples;Min_cycle;Max_cycle;Signal;HPM_P1;HPM_P2
2021/12/26 00:01:03;;;;;;;6.03;4.65;;;2.90;92.50;;;;;;5082809;28;20059;-68
2021/12/26 00:03:32;;;;;;;7.57;4.50;;;2.90;92.60;;;;;;5072542;28;20036;-68
2021/12/26 00:06:06;;;;;;;8.02;5.22;;;2.90;92.60;;;;;;5050611;28;20059;-69
2021/12/26 00:08:35;;;;;;;7.68;5.30;;;2.90;92.60;;;;;;5068075;28;20045;-69
2021/12/26 00:11:05;;;;;;;6.32;4.63;;;2.90;92.70;;;;;;5067128;28;20525;-68
2021/12/26 00:13:33;;;;;;;6.50;4.63;;;2.90;92.70;;;;;;5074397;28;20052;-69
2021/12/26 00:16:02;;;;;;;6.80;4.57;;;2.90;92.70;;;;;;5077261;28;20073;-68
2021/12/26 00:18:30;;;;;;;7.85;4.45;;;2.90;92.70;;;;;;5060846;28;20052;-68
2021/12/26 00:20:59;;;;;;;7.35;4.70;;;2.90;92.80;;;;;;5074991;28;20049;-68
2021/12/26 00:23:27;;;;;;;6.10;4.00;;;2.90;92.70;;;;;;5081590;28;20474;-68
2021/12/26 00:25:55;;;;;;;7.95;3.90;;;2.90;92.80;;;;;;5072398;28;20056;-68
2021/12/26 00:28:22;;;;;;;5.85;4.07;;;2.90;92.80;;;;;;5070844;28;20045;-68
2021/12/26 00:30:50;;;;;;;8.23;4.53;;;2.90;92.80;;;;;;5039982;28;20056;-68
2021/12/26 00:33:18;;;;;;;6.60;4.25;;;2.90;92.80;;;;;;5072911;28;20051;-68
2021/12/26 00:35:45;;;;;;;6.15;3.50;;;2.90;92.80;;;;;;5061084;28;20044;-68
2021/12/26 00:38:14;;;;;;;6.20;3.72;;;2.90;92.90;;;;;;5047032;28;20037;-68
2021/12/26 00:40:43;;;;;;;5.30;4.30;;;2.90;92.90;;;;;;5069983;28;20051;-68
2021/12/26 00:43:11;;;;;;;5.72;3.42;;;2.90;92.90;;;;;;5092104;28;20055;-68
2021/12/26 00:45:40;;;;;;;6.57;4.35;;;2.90;92.90;;;;;;5090971;28;20051;-68
2021/12/26 00:48:09;;;;;;;5.82;4.30;;;2.90;92.90;;;;;;5090133;28;20482;-69
2021/12/26 00:50:40;;;;;;;6.80;4.53;;;2.90;93.00;;;;;;5092737;28;20058;-68
2021/12/26 00:53:08;;;;;;;6.78;4.10;;;2.90;93.00;;;;;;5091972;28;20055;-68
2021/12/26 00:55:36;;;;;;;6.63;4.18;;;2.90;93.00;;;;;;5087136;28;20048;-68
2021/12/26 00:58:04;;;;;;;6.47;3.85;;;2.90;93.00;;;;;;5091326;28;20051;-68
2021/12/26 01:00:38;;;;;;;4.55;3.95;;;2.90;93.00;;;;;;5091196;28;20039;-68
2021/12/26 01:03:06;;;;;;;5.88;3.63;;;2.90;93.10;;;;;;5089138;28;20051;-69
2021/12/26 01:05:36;;;;;;;5.90;3.80;;;2.90;93.10;;;;;;5074682;28;20040;-69
2021/12/26 01:08:09;;;;;;;4.18;3.78;;;2.90;93.10;;;;;;5090182;28;20047;-68
2021/12/26 01:10:44;;;;;;;5.38;4.38;;;2.90;93.10;;;;;;5091190;28;20047;-68
2021/12/26 01:13:24;;;;;;;4.30;3.88;;;2.90;93.10;;;;;;5090349;28;20036;-68
2021/12/26 01:15:59;;;;;;;3.72;3.30;;;2.90;93.20;;;;;;5090165;28;20424;-68
2021/12/26 01:18:32;;;;;;;5.13;3.78;;;2.90;93.20;;;;;;5090823;28;20052;-68
2021/12/26 01:21:17;;;;;;;5.13;4.05;;;2.90;93.20;;;;;;5086888;28;20044;-69
2021/12/26 01:23:59;;;;;;;4.72;3.88;;;2.90;93.20;;;;;;5068612;28;20063;-69
2021/12/26 01:26:28;;;;;;;4.13;3.53;;;2.90;93.20;;;;;;5072365;28;20036;-69
2021/12/26 01:28:56;;;;;;;4.90;3.90;;;2.90;93.20;;;;;;5090426;28;20044;-69
2021/12/26 01:31:25;;;;;;;4.38;3.97;;;2.90;93.20;;;;;;5073555;28;20505;-69
2021/12/26 01:34:05;;;;;;;3.63;3.33;;;2.90;93.20;;;;;;5088545;28;20036;-69
2021/12/26 01:36:52;;;;;;;4.50;3.67;;;2.90;93.20;;;;;;5089634;28;20051;-69
2021/12/26 01:39:46;;;;;;;3.85;3.47;;;2.90;93.30;;;;;;5081274;28;20059;-69
2021/12/26 01:42:23;;;;;;;6.63;3.95;;;2.90;93.20;;;;;;5091836;28;20510;-69
2021/12/26 01:45:07;;;;;;;4.15;3.70;;;2.90;93.30;;;;;;5088059;28;20478;-69
2021/12/26 01:47:46;;;;;;;3.97;3.58;;;2.90;93.20;;;;;;5089451;28;20044;-69
2021/12/26 01:50:14;;;;;;;4.10;3.70;;;2.90;93.30;;;;;;5089203;28;20376;-69
2021/12/26 01:52:43;;;;;;;3.58;3.30;;;2.90;93.30;;;;;;5071534;28;20048;-68
2021/12/26 01:55:22;;;;;;;3.75;3.45;;;2.90;93.20;;;;;;5090729;28;20047;-68
2021/12/26 01:57:54;;;;;;;4.15;3.75;;;2.90;93.30;;;;;;5089619;28;20052;-69
2021/12/26 02:00:23;;;;;;;4.70;3.45;;;2.90;93.30;;;;;;5085177;28;20047;-69
2021/12/26 02:02:51;;;;;;;2.90;2.60;;;2.90;93.30;;;;;;5087320;28;20033;-69
2021/12/26 02:05:20;;;;;;;4.53;4.13;;;2.90;93.20;;;;;;5067616;28;20060;-68
2021/12/26 02:07:49;;;;;;;3.88;3.58;;;2.90;93.20;;;;;;5088026;28;20402;-68
2021/12/26 02:10:17;;;;;;;4.13;3.72;;;3.00;93.30;;;;;;5089727;28;20051;-68
2021/12/26 02:12:45;;;;;;;4.50;3.70;;;2.90;93.20;;;;;;5087495;28;20398;-68
2021/12/26 02:15:13;;;;;;;4.20;3.80;;;3.00;93.20;;;;;;5089028;28;20430;-68
2021/12/26 02:17:44;;;;;;;4.47;4.00;;;3.00;93.30;;;;;;5089551;28;20391;-68
2021/12/26 02:20:31;;;;;;;4.30;3.88;;;3.00;93.20;;;;;;5089658;28;20044;-67
2021/12/26 02:23:07;;;;;;;3.25;2.95;;;3.00;93.30;;;;;;5089503;28;20047;-68
2021/12/26 02:28:25;;;;;;;5.22;3.47;;;3.00;93.20;;;;;;5070453;28;20066;-68
2021/12/26 02:30:55;;;;;;;4.65;3.70;;;3.00;93.20;;;;;;5085353;28;20044;-68
2021/12/26 02:33:24;;;;;;;4.05;3.65;;;3.00;93.20;;;;;;5101683;28;20059;-68
2021/12/26 02:35:53;;;;;;;5.00;4.07;;;3.00;93.20;;;;;;5089627;28;20052;-68
2021/12/26 02:38:22;;;;;;;4.20;3.75;;;3.00;93.20;;;;;;5087999;28;20520;-68
2021/12/26 02:40:53;;;;;;;5.03;3.90;;;3.00;93.20;;;;;;5090992;28;20048;-68
2021/12/26 02:43:23;;;;;;;4.93;4.03;;;3.00;93.20;;;;;;5089044;28;20047;-68
2021/12/26 02:45:52;;;;;;;3.97;3.67;;;3.00;93.30;;;;;;5089352;28;20068;-68
2021/12/26 02:48:20;;;;;;;4.68;4.28;;;3.00;93.30;;;;;;5090715;28;20059;-68
2021/12/26 02:50:56;;;;;;;4.60;4.05;;;3.00;93.20;;;;;;5091511;28;20056;-68
2021/12/26 02:53:27;;;;;;;4.43;3.83;;;3.00;93.20;;;;;;5090088;28;20055;-68
2021/12/26 02:55:57;;;;;;;4.60;3.90;;;3.00;93.20;;;;;;5090403;28;20047;-68
2021/12/26 02:58:25;;;;;;;4.20;3.55;;;3.00;93.30;;;;;;5091913;28;20082;-68
2021/12/26 03:01:01;;;;;;;4.10;3.70;;;3.00;93.20;;;;;;5090122;28;20048;-68
2021/12/26 03:03:29;;;;;;;4.93;4.43;;;3.00;93.20;;;;;;5090033;28;20044;-68
2021/12/26 03:06:02;;;;;;;4.32;3.85;;;3.10;93.30;;;;;;5086926;28;20048;-68
2021/12/26 03:08:30;;;;;;;4.20;3.78;;;3.00;93.30;;;;;;5088574;28;20039;-68
2021/12/26 03:10:59;;;;;;;4.22;3.75;;;3.00;93.30;;;;;;5087414;28;20384;-68
2021/12/26 03:13:28;;;;;;;3.97;3.58;;;3.00;93.30;;;;;;5090301;28;20044;-68
2021/12/26 03:15:55;;;;;;;3.55;3.22;;;3.00;93.30;;;;;;5091457;28;20494;-68
2021/12/26 03:18:23;;;;;;;3.75;3.33;;;3.10;93.30;;;;;;5089438;28;20040;-68
2021/12/26 03:20:51;;;;;;;3.70;3.40;;;3.10;93.30;;;;;;5086182;28;20052;-68
2021/12/26 03:23:22;;;;;;;4.32;3.78;;;3.10;93.30;;;;;;5089470;28;20048;-68
2021/12/26 03:25:54;;;;;;;3.60;3.30;;;3.10;93.30;;;;;;5073601;28;20487;-68
2021/12/26 03:28:23;;;;;;;3.10;2.80;;;3.10;93.30;;;;;;5089854;28;20047;-68
2021/12/26 03:30:52;;;;;;;3.17;2.85;;;3.10;93.30;;;;;;5089969;28;20138;-68
2021/12/26 03:33:21;;;;;;;3.60;3.30;;;3.10;93.30;;;;;;5071842;28;20396;-68
2021/12/26 03:35:50;;;;;;;3.60;3.20;;;3.10;93.30;;;;;;5086636;28;20043;-68
2021/12/26 03:38:21;;;;;;;3.45;3.15;;;3.10;93.30;;;;;;5089437;28;20040;-68
2021/12/26 03:40:51;;;;;;;3.67;3.38;;;3.10;93.30;;;;;;5090443;28;20055;-68
2021/12/26 03:43:20;;;;;;;3.22;2.92;;;3.10;93.30;;;;;;5076473;28;20047;-68
2021/12/26 03:45:51;;;;;;;2.83;2.63;;;3.10;93.30;;;;;;5076641;28;20044;-68
2021/12/26 03:48:21;;;;;;;3.42;3.13;;;3.10;93.20;;;;;;5076845;28;20048;-68
2021/12/26 03:50:49;;;;;;;3.60;3.30;;;3.20;93.30;;;;;;5077212;28;20047;-68
2021/12/26 03:53:17;;;;;;;3.83;3.53;;;3.10;93.20;;;;;;5076837;28;20048;-68
2021/12/26 03:55:48;;;;;;;3.92;3.53;;;3.10;93.30;;;;;;5093261;28;20048;-68
2021/12/26 03:58:17;;;;;;;3.72;3.40;;;3.20;93.30;;;;;;5076861;28;20134;-68
2021/12/26 04:00:46;;;;;;;3.38;3.10;;;3.20;93.20;;;;;;5094951;28;20154;-68
2021/12/26 04:03:17;;;;;;;2.35;2.15;;;3.10;93.20;;;;;;5044271;28;20044;-68
2021/12/26 04:05:54;;;;;;;3.60;3.30;;;3.20;93.30;;;;;;5065858;28;20045;-68
2021/12/26 04:08:23;;;;;;;3.30;3.00;;;3.20;93.20;;;;;;5076913;28;20044;-68
2021/12/26 04:10:50;;;;;;;3.42;3.13;;;3.20;93.20;;;;;;5059636;28;20048;-68
2021/12/26 04:13:18;;;;;;;3.80;3.50;;;3.20;93.20;;;;;;5094048;28;20052;-68
2021/12/26 04:15:46;;;;;;;3.78;3.47;;;3.20;93.20;;;;;;5076968;28;20043;-68
2021/12/26 04:18:15;;;;;;;3.78;3.47;;;3.20;93.20;;;;;;5076134;28;20048;-67
2021/12/26 04:20:43;;;;;;;3.78;3.47;;;3.20;93.20;;;;;;5063488;28;20048;-67
2021/12/26 04:23:14;;;;;;;4.90;4.00;;;3.20;93.20;;;;;;5062158;28;20383;-69
2021/12/26 04:25:44;;;;;;;3.33;3.03;;;3.20;93.20;;;;;;5060432;28;20059;-67
2021/12/26 04:28:11;;;;;;;4.25;3.90;;;3.20;93.20;;;;;;5094071;28;20418;-67
2021/12/26 04:30:41;;;;;;;5.55;4.03;;;3.20;93.20;;;;;;5076182;28;20071;-68
2021/12/26 04:33:09;;;;;;;4.60;4.20;;;3.20;93.20;;;;;;5094668;28;20407;-68
2021/12/26 04:35:36;;;;;;;3.97;3.58;;;3.20;93.20;;;;;;5076711;28;20043;-68
2021/12/26 04:38:04;;;;;;;4.40;4.00;;;3.20;93.20;;;;;;5094721;28;20067;-68
2021/12/26 04:40:32;;;;;;;4.60;4.20;;;3.20;93.20;;;;;;5075707;28;20048;-68
2021/12/26 04:43:22;;;;;;;4.60;4.20;;;3.20;93.20;;;;;;5093893;28;20059;-68
2021/12/26 04:46:05;;;;;;;4.70;3.88;;;3.30;93.20;;;;;;5092399;28;20051;-68
2021/12/26 04:48:52;;;;;;;4.55;4.15;;;3.30;93.20;;;;;;5084094;28;20059;-68
2021/12/26 04:51:20;;;;;;;4.40;4.00;;;3.20;93.20;;;;;;5074746;28;20052;-69
2021/12/26 04:53:54;;;;;;;4.95;4.30;;;3.30;93.20;;;;;;5076913;28;20517;-68
2021/12/26 04:56:21;;;;;;;4.65;4.25;;;3.30;93.20;;;;;;5084193;28;20045;-68
2021/12/26 04:58:49;;;;;;;4.80;4.30;;;3.30;93.30;;;;;;5092792;28;20040;-68
2021/12/26 05:01:17;;;;;;;4.90;4.50;;;3.30;93.30;;;;;;5075908;28;20055;-68
2021/12/26 05:03:45;;;;;;;4.50;4.10;;;3.30;93.30;;;;;;5065681;28;20060;-68
2021/12/26 05:06:12;;;;;;;5.10;4.60;;;3.30;93.30;;;;;;5072534;28;20044;-68
2021/12/26 05:08:40;;;;;;;4.70;4.30;;;3.30;93.20;;;;;;5072557;28;20063;-68
2021/12/26 05:11:07;;;;;;;4.93;4.43;;;3.30;93.20;;;;;;5072397;28;20045;-69
2021/12/26 05:13:35;;;;;;;5.10;4.70;;;3.30;93.20;;;;;;5073704;28;20044;-68
2021/12/26 05:16:03;;;;;;;5.40;5.00;;;3.30;93.20;;;;;;5086642;28;20491;-68
2021/12/26 05:18:32;;;;;;;5.07;4.60;;;3.30;93.20;;;;;;5092373;28;20094;-69
2021/12/26 05:21:04;;;;;;;5.40;4.85;;;3.30;93.20;;;;;;5081416;28;20059;-69
2021/12/26 05:23:32;;;;;;;5.57;5.07;;;3.30;93.20;;;;;;5073548;28;20059;-68
2021/12/26 05:26:00;;;;;;;5.25;4.75;;;3.30;93.20;;;;;;5072206;28;20044;-68
2021/12/26 05:28:31;;;;;;;5.85;5.35;;;3.30;93.20;;;;;;5072083;28;20503;-68
2021/12/26 05:30:59;;;;;;;5.68;5.18;;;3.30;93.20;;;;;;5071104;28;20060;-69
2021/12/26 05:33:31;;;;;;;6.07;5.47;;;3.30;93.20;;;;;;5062490;28;20059;-69
2021/12/26 05:36:00;;;;;;;5.95;5.35;;;3.30;93.20;;;;;;5091945;28;20475;-69
2021/12/26 05:38:31;;;;;;;5.63;5.13;;;3.30;93.20;;;;;;5092385;28;20048;-69
2021/12/26 05:40:59;;;;;;;5.63;5.07;;;3.30;93.20;;;;;;5092065;28;20055;-69
2021/12/26 05:43:27;;;;;;;5.85;5.40;;;3.30;93.20;;;;;;5092195;28;20052;-69
2021/12/26 05:45:56;;;;;;;6.85;6.25;;;3.30;93.20;;;;;;5092102;28;20317;-69
2021/12/26 05:48:24;;;;;;;6.72;6.07;;;3.30;93.20;;;;;;5081789;28;20045;-69
2021/12/26 05:50:52;;;;;;;7.03;6.22;;;3.30;93.20;;;;;;5071714;28;20439;-69
2021/12/26 05:53:38;;;;;;;7.70;6.50;;;3.30;93.20;;;;;;5072643;28;20055;-69
2021/12/26 05:56:06;;;;;;;7.82;7.03;;;3.40;93.20;;;;;;5091305;28;20047;-68
2021/12/26 05:58:35;;;;;;;7.50;6.70;;;3.40;93.20;;;;;;5090873;28;20051;-68
2021/12/26 06:01:04;;;;;;;7.75;6.95;;;3.30;93.20;;;;;;5091738;28;20064;-68
2021/12/26 06:03:33;;;;;;;7.40;6.70;;;3.40;93.20;;;;;;5091523;28;20052;-69
2021/12/26 06:06:01;;;;;;;8.40;7.53;;;3.40;93.20;;;;;;5073907;28;20052;-69
2021/12/26 06:08:37;;;;;;;9.57;7.55;;;3.30;93.20;;;;;;5091684;28;20051;-70
2021/12/26 06:11:05;;;;;;;9.68;7.50;;;3.40;93.20;;;;;;5091366;28;20052;-69
2021/12/26 06:13:33;;;;;;;8.95;7.63;;;3.40;93.20;;;;;;5079529;28;20055;-69
2021/12/26 06:16:01;;;;;;;8.30;7.50;;;3.40;93.20;;;;;;5071315;28;20044;-69
2021/12/26 06:18:29;;;;;;;8.27;7.45;;;3.40;93.30;;;;;;5071286;28;20399;-68
2021/12/26 06:21:17;;;;;;;9.93;8.48;;;3.30;93.30;;;;;;5072393;28;20045;-69
2021/12/26 06:23:51;;;;;;;10.00;8.57;;;3.40;93.30;;;;;;5072625;28;20040;-69
2021/12/26 06:26:42;;;;;;;10.27;8.30;;;3.40;93.20;;;;;;5034865;28;20159;-69
2021/12/26 06:29:23;;;;;;;9.80;8.23;;;3.40;93.30;;;;;;5029854;28;20057;-69
2021/12/26 06:32:20;;;;;;;9.88;8.25;;;3.40;93.30;;;;;;4956621;28;20050;-69
2021/12/26 06:35:25;;;;;;;13.35;9.07;;;3.40;93.30;;;;;;4951870;29;20051;-69
2021/12/26 06:38:14;;;;;;;11.68;9.60;;;3.40;93.30;;;;;;4961332;28;20057;-70
2021/12/26 06:41:01;;;;;;;9.80;8.43;;;3.40;93.30;;;;;;4964441;28;20066;-69
2021/12/26 06:43:47;;;;;;;14.13;9.75;;;3.40;93.30;;;;;;4932823;29;20051;-69
2021/12/26 06:46:36;;;;;;;11.60;9.48;;;3.40;93.30;;;;;;4932708;29;20404;-69
2021/12/26 06:49:18;;;;;;;11.88;10.23;;;3.40;93.30;;;;;;4967379;28;20066;-69
2021/12/26 06:51:46;;;;;;;12.52;9.70;;;3.40;93.30;;;;;;4951661;29;20127;-69
2021/12/26 06:54:14;;;;;;;12.75;10.15;;;3.40;93.30;;;;;;4951721;29;20086;-69
2021/12/26 06:56:42;;;;;;;12.25;10.23;;;3.40;93.30;;;;;;4950759;29;20098;-69
2021/12/26 06:59:10;;;;;;;12.00;9.10;;;3.40;93.30;;;;;;4951230;29;20058;-69
2021/12/26 07:01:38;;;;;;;12.63;9.18;;;3.40;93.30;;;;;;4948368;29;20060;-69
2021/12/26 07:04:09;;;;;;;10.32;8.35;;;3.40;93.40;;;;;;4963601;28;20395;-69
2021/12/26 07:06:37;;;;;;;10.48;8.55;;;3.50;93.40;;;;;;4973848;28;20489;-69
2021/12/26 07:09:17;;;;;;;11.40;9.32;;;3.50;93.40;;;;;;5039802;28;20510;-69
2021/12/26 07:11:45;;;;;;;10.77;9.10;;;3.40;93.40;;;;;;5086766;28;20055;-69
2021/12/26 07:14:24;;;;;;;10.02;8.68;;;3.50;93.40;;;;;;5090189;28;20044;-69
2021/12/26 07:16:52;;;;;;;11.32;9.18;;;3.40;93.40;;;;;;5091742;28;20051;-69
2021/12/26 07:19:20;;;;;;;12.57;10.02;;;3.50;93.40;;;;;;5087081;28;20043;-69
2021/12/26 07:21:49;;;;;;;11.40;9.30;;;3.50;93.40;;;;;;5074615;28;20040;-69
2021/12/26 07:24:17;;;;;;;11.80;10.05;;;3.50;93.40;;;;;;5074462;28;20055;-69
2021/12/26 07:26:45;;;;;;;12.85;9.50;;;3.50;93.40;;;;;;5074569;28;20036;-69
2021/12/26 07:29:32;;;;;;;13.80;10.40;;;3.50;93.40;;;;;;5075098;28;20064;-69
2021/12/26 07:32:00;;;;;;;13.48;10.18;;;3.50;93.40;;;;;;5057746;28;20053;-69
2021/12/26 07:34:29;;;;;;;10.98;9.45;;;3.50;93.40;;;;;;5082093;28;20043;-69
2021/12/26 07:36:56;;;;;;;13.60;9.85;;;3.50;93.40;;;;;;5094774;28;20067;-69
2021/12/26 07:39:29;;;;;;;12.43;9.75;;;3.50;93.40;;;;;;5094071;28;20426;-69
2021/12/26 07:41:58;;;;;;;10.07;9.00;;;3.50;93.40;;;;;;5094343;28;20060;-69
2021/12/26 07:44:45;;;;;;;11.93;9.25;;;3.50;93.40;;;;;;5095549;28;20051;-69
2021/12/26 07:47:28;;;;;;;9.63;8.23;;;3.50;93.50;;;;;;5093369;28;20040;-69
2021/12/26 07:49:59;;;;;;;11.27;9.05;;;3.50;93.50;;;;;;5094004;28;20126;-69
2021/12/26 07:52:48;;;;;;;10.45;9.07;;;3.50;93.40;;;;;;5063434;28;20067;-69
2021/12/26 07:55:34;;;;;;;11.48;9.25;;;3.50;93.40;;;;;;5094662;28;20048;-69
2021/12/26 07:58:21;;;;;;;11.35;8.63;;;3.60;93.50;;;;;;5094336;28;20040;-69
2021/12/26 08:01:17;;;;;;;10.32;8.75;;;3.50;93.50;;;;;;5052259;28;20056;-69
2021/12/26 08:04:11;;;;;;;11.48;9.30;;;3.60;93.50;;;;;;5049505;28;20045;-69
2021/12/26 08:07:09;;;;;;;12.65;9.07;;;3.60;93.50;;;;;;5032235;28;20054;-69
2021/12/26 08:09:37;;;;;;;10.98;9.15;;;3.60;93.40;;;;;;5032571;28;20053;-70
2021/12/26 08:12:05;;;;;;;11.23;8.98;;;3.60;93.50;;;;;;5028396;28;20054;-69
2021/12/26 08:14:33;;;;;;;12.52;9.75;;;3.60;93.50;;;;;;5014356;28;20410;-69
2021/12/26 08:17:01;;;;;;;10.75;8.95;;;3.70;93.50;;;;;;5027343;28;20045;-70
2021/12/26 08:19:29;;;;;;;10.63;8.85;;;3.70;93.50;;;;;;5031576;28;20432;-69
2021/12/26 08:21:56;;;;;;;10.27;8.50;;;3.70;93.50;;;;;;5032236;28;20064;-68
2021/12/26 08:24:26;;;;;;;13.98;8.68;;;3.70;93.50;;;;;;5032260;28;20061;-69
2021/12/26 08:26:54;;;;;;;9.95;8.48;;;3.70;93.50;;;;;;5032460;28;20057;-68
2021/12/26 08:29:23;;;;;;;11.20;9.32;;;3.70;93.50;;;;;;5014793;28;20057;-69
2021/12/26 08:31:55;;;;;;;15.75;9.40;;;3.70;93.50;;;;;;5031093;28;20060;-68
2021/12/26 08:34:23;;;;;;;10.93;8.68;;;3.70;93.50;;;;;;5031961;28;20053;-69
2021/12/26 08:37:04;;;;;;;12.40;9.50;;;3.70;93.50;;;;;;5033060;28;20048;-68
2021/12/26 08:39:35;;;;;;;10.57;8.55;;;3.70;93.50;;;;;;5051858;28;20417;-68
2021/12/26 08:42:04;;;;;;;16.00;9.63;;;3.70;93.40;;;;;;5051476;28;20049;-68
2021/12/26 08:44:36;;;;;;;11.32;8.98;;;3.70;93.40;;;;;;5080100;28;20048;-68
2021/12/26 08:47:05;;;;;;;11.73;9.52;;;3.70;93.40;;;;;;5094302;28;20059;-69
2021/12/26 08:49:33;;;;;;;12.65;10.10;;;3.70;93.40;;;;;;5093116;28;20398;-70
2021/12/26 08:52:01;;;;;;;14.57;9.85;;;3.70;93.40;;;;;;5093755;28;20047;-70
2021/12/26 08:54:30;;;;;;;13.05;9.75;;;3.80;93.50;;;;;;5092252;28;20402;-69
2021/12/26 08:56:59;;;;;;;15.85;10.50;;;3.80;93.50;;;;;;5093614;28;20066;-69
2021/12/26 08:59:30;;;;;;;15.23;10.48;;;3.80;93.50;;;;;;5088912;28;20484;-69
2021/12/26 09:02:02;;;;;;;15.50;10.45;;;3.80;93.40;;;;;;5072227;28;20515;-76
2021/12/26 09:04:30;;;;;;;16.02;11.20;;;3.80;93.50;;;;;;5074452;28;20502;-72
2021/12/26 09:06:57;;;;;;;15.80;11.15;;;3.80;93.50;;;;;;5091450;28;20052;-69
2021/12/26 09:09:28;;;;;;;14.75;10.70;;;3.80;93.50;;;;;;5093861;28;20048;-69
2021/12/26 09:11:58;;;;;;;18.90;11.25;;;3.80;93.40;;;;;;5093510;28;20052;-69
2021/12/26 09:14:28;;;;;;;19.75;12.20;;;3.80;93.40;;;;;;5093799;28;20054;-69
2021/12/26 09:16:57;;;;;;;22.40;12.82;;;3.80;93.40;;;;;;5092352;28;20048;-69
2021/12/26 09:19:28;;;;;;;17.48;11.90;;;3.80;93.50;;;;;;5093327;28;20039;-69
2021/12/26 09:21:57;;;;;;;21.27;12.60;;;3.80;93.50;;;;;;5073582;28;20068;-69
2021/12/26 09:24:25;;;;;;;22.45;12.02;;;3.80;93.50;;;;;;5073434;28;20056;-69
2021/12/26 09:26:53;;;;;;;23.38;12.90;;;3.80;93.50;;;;;;5073244;28;20048;-70
2021/12/26 09:29:22;;;;;;;23.60;13.77;;;3.80;93.50;;;;;;5072377;28;20488;-69
2021/12/26 09:31:50;;;;;;;22.77;13.55;;;3.80;93.50;;;;;;5081577;28;20406;-69
2021/12/26 09:34:18;;;;;;;23.15;13.57;;;3.90;93.50;;;;;;5093362;28;20044;-70
2021/12/26 09:36:47;;;;;;;24.40;13.98;;;3.80;93.50;;;;;;5071659;28;20412;-69
2021/12/26 09:39:15;;;;;;;23.90;13.80;;;3.90;93.50;;;;;;5073084;28;20049;-69
2021/12/26 09:41:43;;;;;;;20.75;12.70;;;3.90;93.50;;;;;;5072963;28;20051;-70
2021/12/26 09:44:11;;;;;;;25.35;14.00;;;3.90;93.50;;;;;;5073098;28;20037;-70
2021/12/26 09:46:39;;;;;;;23.23;14.05;;;3.90;93.50;;;;;;5072038;28;20045;-70
2021/12/26 09:49:07;;;;;;;23.55;13.27;;;3.90;93.60;;;;;;5090028;28;20051;-70
2021/12/26 09:51:35;;;;;;;24.52;14.25;;;3.90;93.50;;;;;;5091456;28;20495;-70
2021/12/26 09:54:05;;;;;;;26.52;13.50;;;4.00;93.50;;;;;;5072904;28;20052;-69
2021/12/26 09:56:32;;;;;;;24.50;14.25;;;4.00;93.50;;;;;;5091142;28;20044;-70
2021/12/26 09:59:04;;;;;;;23.40;14.48;;;4.00;93.60;;;;;;5091341;28;20048;-69
2021/12/26 10:01:38;;;;;;;24.50;13.50;;;4.00;93.60;;;;;;5089965;28;20542;-69
2021/12/26 10:04:27;;;;;;;28.75;15.25;;;4.00;93.60;;;;;;5072990;28;20054;-69
2021/12/26 10:07:00;;;;;;;21.65;13.40;;;4.00;93.60;;;;;;5091246;28;20067;-70
2021/12/26 10:09:29;;;;;;;26.60;13.43;;;4.00;93.60;;;;;;5089668;28;20052;-70
2021/12/26 10:12:00;;;;;;;22.92;13.40;;;4.00;93.60;;;;;;5090477;28;20052;-70
2021/12/26 10:14:30;;;;;;;23.00;13.05;;;4.00;93.60;;;;;;5091502;28;20044;-70
2021/12/26 10:17:01;;;;;;;22.65;13.48;;;4.10;93.50;;;;;;5073997;28;20407;-69
2021/12/26 10:19:37;;;;;;;22.80;12.65;;;4.10;93.50;;;;;;5073727;28;20533;-70
2021/12/26 10:22:06;;;;;;;25.55;13.82;;;4.10;93.50;;;;;;5081726;28;20048;-70
2021/12/26 10:24:36;;;;;;;18.98;12.63;;;4.10;93.50;;;;;;5083638;28;20044;-70
2021/12/26 10:27:11;;;;;;;21.13;12.13;;;4.10;93.60;;;;;;5053099;28;20318;-69
2021/12/26 10:29:48;;;;;;;26.20;13.88;;;4.20;93.50;;;;;;5053970;28;20044;-69
2021/12/26 10:32:18;;;;;;;28.02;13.45;;;4.10;93.50;;;;;;5070673;28;20399;-69
2021/12/26 10:34:47;;;;;;;24.38;14.20;;;4.20;93.60;;;;;;5072120;28;20418;-69
2021/12/26 10:37:23;;;;;;;27.98;14.45;;;4.20;93.60;;;;;;5081516;28;20041;-69
2021/12/26 10:39:55;;;;;;;25.08;13.35;;;4.20;93.60;;;;;;5091448;28;20044;-70
2021/12/26 10:42:31;;;;;;;25.33;13.75;;;4.20;93.60;;;;;;5089502;28;20047;-70
2021/12/26 10:45:03;;;;;;;24.98;13.82;;;4.30;93.60;;;;;;5092350;28;20044;-69
2021/12/26 10:47:33;;;;;;;22.75;14.15;;;4.30;93.50;;;;;;5092215;28;20521;-69
2021/12/26 10:50:14;;;;;;;27.60;13.85;;;4.30;93.50;;;;;;5092342;28;20040;-69
2021/12/26 10:52:49;;;;;;;24.05;13.45;;;4.30;93.60;;;;;;5071334;28;20521;-68
2021/12/26 10:55:25;;;;;;;22.48;13.45;;;4.40;93.50;;;;;;5075739;28;20067;-68
2021/12/26 10:57:54;;;;;;;24.20;12.73;;;4.40;93.50;;;;;;5092240;28;20493;-68
2021/12/26 11:00:26;;;;;;;19.88;11.98;;;4.50;93.50;;;;;;5092071;28;20048;-70
2021/12/26 11:03:01;;;;;;;25.35;13.00;;;4.50;93.50;;;;;;5090681;28;20036;-70
2021/12/26 11:05:41;;;;;;;22.20;13.18;;;4.50;93.40;;;;;;5092314;28;20051;-69
2021/12/26 11:08:13;;;;;;;24.08;12.95;;;4.50;93.40;;;;;;5091022;28;20083;-68
2021/12/26 11:10:46;;;;;;;25.05;14.05;;;4.50;93.40;;;;;;5092085;28;20510;-69
2021/12/26 11:13:17;;;;;;;27.48;13.80;;;4.60;93.40;;;;;;5090768;28;20048;-69
2021/12/26 11:15:47;;;;;;;24.88;13.82;;;4.60;93.30;;;;;;5089695;28;20048;-69
2021/12/26 11:18:17;;;;;;;24.52;13.70;;;4.60;93.30;;;;;;5071895;28;20049;-69
2021/12/26 11:21:06;;;;;;;28.85;14.55;;;4.60;93.30;;;;;;5070606;28;20052;-69
2021/12/26 11:23:38;;;;;;;26.15;13.63;;;4.70;93.30;;;;;;5082510;28;20040;-69
2021/12/26 11:26:12;;;;;;;31.57;14.77;;;4.70;93.30;;;;;;5090870;28;20048;-69
2021/12/26 11:28:44;;;;;;;31.30;14.70;;;4.70;93.30;;;;;;5090717;28;20040;-69
2021/12/26 11:31:16;;;;;;;29.23;14.60;;;4.70;93.30;;;;;;5090499;28;20059;-69
2021/12/26 11:33:45;;;;;;;29.35;14.75;;;4.70;93.30;;;;;;5091498;28;20066;-69
2021/12/26 11:36:13;;;;;;;31.58;15.27;;;4.70;93.30;;;;;;5090595;28;20044;-69
2021/12/26 11:38:44;;;;;;;33.08;15.55;;;4.80;93.30;;;;;;5074498;28;20521;-69
2021/12/26 11:41:52;;;;;;;31.23;14.35;;;4.80;93.30;;;;;;5091381;28;20061;-68
2021/12/26 11:45:01;;;;;;;31.83;15.27;;;4.80;93.30;;;;;;5071683;28;20052;-68
2021/12/26 11:48:36;;;;;;;30.42;15.75;;;4.80;93.20;;;;;;5071294;28;20049;-69
2021/12/26 11:51:55;;;;;;;36.10;15.35;;;4.70;93.20;;;;;;5071203;28;20036;-68
2021/12/26 11:54:44;;;;;;;35.10;15.65;;;4.80;93.20;;;;;;5055720;28;20513;-69
2021/12/26 11:57:43;;;;;;;35.38;16.05;;;4.80;93.20;;;;;;5055973;28;20040;-68
2021/12/26 12:00:23;;;;;;;37.72;16.15;;;4.80;93.20;;;;;;5091520;28;20537;-68
2021/12/26 12:03:00;;;;;;;39.03;17.48;;;4.80;93.20;;;;;;5091834;28;20067;-68
2021/12/26 12:05:41;;;;;;;32.65;17.25;;;4.80;93.20;;;;;;5094415;28;20059;-69
2021/12/26 12:08:11;;;;;;;38.10;17.27;;;4.80;93.20;;;;;;5086303;28;20518;-69
2021/12/26 12:10:41;;;;;;;33.33;15.55;;;4.80;93.30;;;;;;5074914;28;20049;-69
2021/12/26 12:13:22;;;;;;;34.75;15.82;;;4.80;93.30;;;;;;5081368;28;20043;-69
2021/12/26 12:16:10;;;;;;;38.67;17.25;;;4.80;93.30;;;;;;5095057;28;20055;-69
2021/12/26 12:18:51;;;;;;;31.13;15.13;;;4.90;93.30;;;;;;5095072;28;20482;-69
2021/12/26 12:21:23;;;;;;;37.60;17.63;;;4.90;93.20;;;;;;5094698;28;20495;-69
2021/12/26 12:24:13;;;;;;;36.10;16.33;;;4.90;93.20;;;;;;5094535;28;20525;-69
2021/12/26 12:26:43;;;;;;;34.65;16.67;;;5.00;93.20;;;;;;5094391;28;20414;-70
2021/12/26 12:29:14;;;;;;;40.58;17.95;;;5.00;93.10;;;;;;5083762;28;20534;-69
2021/12/26 12:31:42;;;;;;;35.00;16.80;;;4.90;93.10;;;;;;5090194;28;20368;-69
2021/12/26 12:34:13;;;;;;;38.20;16.83;;;5.00;93.10;;;;;;5085604;28;20067;-73
2021/12/26 12:36:45;;;;;;;41.42;18.77;;;5.00;93.10;;;;;;5085282;28;20045;-71
2021/12/26 12:39:23;;;;;;;37.63;17.92;;;5.00;93.10;;;;;;5088613;28;20402;-69
2021/12/26 12:41:53;;;;;;;40.70;18.58;;;5.00;93.10;;;;;;5092745;28;20052;-70
2021/12/26 12:44:31;;;;;;;41.30;17.70;;;5.00;93.20;;;;;;5088614;28;20055;-69
2021/12/26 12:47:17;;;;;;;45.63;17.77;;;5.10;93.20;;;;;;5092676;28;20048;-69
2021/12/26 12:49:44;;;;;;;37.95;17.23;;;5.10;93.10;;;;;;5074870;28;20399;-69
2021/12/26 12:53:03;;;;;;;39.80;17.27;;;5.10;93.10;;;;;;5071537;28;20036;-70
2021/12/26 12:55:43;;;;;;;48.40;18.55;;;5.20;93.10;;;;;;5056080;28;20047;-69
2021/12/26 12:58:22;;;;;;;42.65;17.65;;;5.20;93.20;;;;;;5070168;28;20048;-68
2021/12/26 13:00:50;;;;;;;41.35;17.75;;;5.20;93.10;;;;;;5086954;28;20060;-68
2021/12/26 13:03:20;;;;;;;43.08;16.27;;;5.20;93.10;;;;;;5088334;28;20033;-68
2021/12/26 13:05:50;;;;;;;43.38;17.65;;;5.30;93.10;;;;;;5085588;28;20040;-68
2021/12/26 13:08:20;;;;;;;50.13;17.90;;;5.20;93.00;;;;;;5065733;28;20052;-69
2021/12/26 13:10:51;;;;;;;52.63;18.67;;;5.20;93.10;;;;;;5064247;28;20507;-68
2021/12/26 13:13:21;;;;;;;44.30;17.45;;;5.20;93.10;;;;;;5088793;28;20494;-68
2021/12/26 13:15:50;;;;;;;51.33;18.83;;;5.20;93.10;;;;;;5088683;28;20443;-68
2021/12/26 13:18:19;;;;;;;48.65;17.95;;;5.20;93.10;;;;;;5073260;28;20047;-70
2021/12/26 13:21:05;;;;;;;54.55;18.92;;;5.20;93.10;;;;;;5090315;28;20048;-68